Time;durP1;ratioP1;P1;durP2;ratioP2;P2;SDS_P1;SDS_P2;PMS_P1;PMS_P2;Temp;Humidity;BMP_temperature;BMP_pressure;BME280_temperature;BME280_humidity;BME280_pressure;Samples;Min_cycle;Max_cycle;Signal;HPM_P1;HPM_P2
2022/04/03 00:00:09;;;;;;;2.37;1.60;;;;;;;;;;5066617;28;20188;-53
2022/04/03 00:02:35;;;;;;;2.13;1.93;;;;;;;;;;5052754;28;20275;-53
2022/04/03 00:05:02;;;;;;;2.37;2.07;;;;;;;;;;5053442;28;20326;-53
2022/04/03 00:07:28;;;;;;;2.30;2.10;;;;;;;;;;5075439;28;20272;-55
2022/04/03 00:09:54;;;;;;;2.93;1.60;;;;;;;;;;5057467;28;20903;-53
2022/04/03 00:12:24;;;;;;;3.80;1.90;;;;;;;;;;5040010;28;20239;-53
2022/04/03 00:14:50;;;;;;;1.90;1.73;;;;;;;;;;5068039;28;20222;-54
2022/04/03 00:17:16;;;;;;;2.43;1.90;;;;;;;;;;5057202;28;20636;-54
2022/04/03 00:19:42;;;;;;;2.97;1.97;;;;;;;;;;5058666;28;20571;-53
2022/04/03 00:22:08;;;;;;;3.90;2.17;;;;;;;;;;5061878;28;20627;-55
2022/04/03 00:24:35;;;;;;;1.80;1.70;;;;;;;;;;5059240;28;20184;-52
2022/04/03 00:27:01;;;;;;;3.33;2.13;;;;;;;;;;5063699;28;20160;-53
2022/04/03 00:29:28;;;;;;;2.53;2.10;;;;;;;;;;5059830;28;20305;-53
2022/04/03 00:31:54;;;;;;;2.07;1.87;;;;;;;;;;5064177;28;20674;-53
2022/04/03 00:34:20;;;;;;;1.80;1.70;;;;;;;;;;5055859;28;20203;-53
2022/04/03 00:36:46;;;;;;;1.87;1.63;;;;;;;;;;5066257;28;20549;-52
2022/04/03 00:39:12;;;;;;;2.27;1.93;;;;;;;;;;5060154;28;20200;-53
2022/04/03 00:41:39;;;;;;;2.83;1.87;;;;;;;;;;5058154;28;20173;-53
2022/04/03 00:44:05;;;;;;;2.27;1.80;;;;;;;;;;5045072;28;20176;-53
2022/04/03 00:46:33;;;;;;;1.97;1.70;;;;;;;;;;5050612;28;20184;-53
2022/04/03 00:49:00;;;;;;;2.90;2.13;;;;;;;;;;5061686;28;20187;-53
2022/04/03 00:51:26;;;;;;;2.20;2.00;;;;;;;;;;5072841;28;20179;-53
2022/04/03 00:53:52;;;;;;;2.80;2.27;;;;;;;;;;5043370;28;20197;-54
2022/04/03 00:56:18;;;;;;;2.23;1.80;;;;;;;;;;5058273;28;20191;-52
2022/04/03 00:58:45;;;;;;;2.20;2.00;;;;;;;;;;5045484;28;20185;-54
2022/04/03 01:01:12;;;;;;;2.70;1.97;;;;;;;;;;5042522;28;20180;-54
2022/04/03 01:03:38;;;;;;;2.03;1.90;;;;;;;;;;5048797;28;20179;-53
2022/04/03 01:06:04;;;;;;;2.50;1.90;;;;;;;;;;5055957;28;20184;-54
2022/04/03 01:08:30;;;;;;;2.20;1.80;;;;;;;;;;5059964;28;20296;-53
2022/04/03 01:10:56;;;;;;;2.50;1.80;;;;;;;;;;5035274;28;20222;-53
2022/04/03 01:13:22;;;;;;;3.23;2.47;;;;;;;;;;5041843;28;20385;-53
2022/04/03 01:15:59;;;;;;;2.10;1.90;;;;;;;;;;5066182;28;20540;-54
2022/04/03 01:18:25;;;;;;;2.90;2.23;;;;;;;;;;5069635;28;20611;-54
2022/04/03 01:20:52;;;;;;;3.53;2.23;;;;;;;;;;5063910;28;20176;-51
2022/04/03 01:23:19;;;;;;;2.40;2.20;;;;;;;;;;5058112;28;20628;-53
2022/04/03 01:25:45;;;;;;;2.03;1.87;;;;;;;;;;5053871;28;20181;-52
2022/04/03 01:28:12;;;;;;;2.10;1.90;;;;;;;;;;5048629;28;20199;-52
2022/04/03 01:30:38;;;;;;;2.40;2.13;;;;;;;;;;5065366;28;20663;-52
2022/04/03 01:33:04;;;;;;;2.37;2.13;;;;;;;;;;5068267;28;20180;-53
2022/04/03 01:35:30;;;;;;;2.00;1.80;;;;;;;;;;5062671;28;20283;-53
2022/04/03 01:37:56;;;;;;;2.63;1.83;;;;;;;;;;5048064;28;20196;-54
2022/04/03 01:40:23;;;;;;;2.00;1.87;;;;;;;;;;5048562;28;20616;-53
2022/04/03 01:42:50;;;;;;;2.10;1.90;;;;;;;;;;5063072;28;20545;-53
2022/04/03 01:45:16;;;;;;;2.13;1.93;;;;;;;;;;5065301;28;20304;-53
2022/04/03 01:47:42;;;;;;;1.83;1.73;;;;;;;;;;5051158;28;20180;-54
2022/04/03 01:50:09;;;;;;;2.40;2.13;;;;;;;;;;5064330;28;20189;-53
2022/04/03 01:52:35;;;;;;;1.77;1.67;;;;;;;;;;5053936;28;20223;-55
2022/04/03 01:55:01;;;;;;;2.40;2.07;;;;;;;;;;5051258;28;20695;-53
2022/04/03 01:57:27;;;;;;;2.00;1.80;;;;;;;;;;5050449;28;20206;-53
2022/04/03 01:59:53;;;;;;;2.70;1.90;;;;;;;;;;5069478;28;20180;-52
2022/04/03 02:02:19;;;;;;;2.40;1.70;;;;;;;;;;5060234;28;20527;-54
2022/04/03 02:04:46;;;;;;;2.53;2.33;;;;;;;;;;5043177;28;20188;-54
2022/04/03 02:07:12;;;;;;;2.87;1.73;;;;;;;;;;5071551;28;20672;-50
2022/04/03 02:09:38;;;;;;;4.43;1.93;;;;;;;;;;5047179;28;20181;-53
2022/04/03 02:12:05;;;;;;;1.97;1.80;;;;;;;;;;5052011;28;20183;-53
2022/04/03 02:14:31;;;;;;;2.23;2.03;;;;;;;;;;5073531;28;20197;-53
2022/04/03 02:16:58;;;;;;;2.53;2.20;;;;;;;;;;5064119;28;20172;-53
2022/04/03 02:19:25;;;;;;;3.90;2.00;;;;;;;;;;5051951;28;20195;-53
2022/04/03 02:21:51;;;;;;;2.17;1.90;;;;;;;;;;5061620;28;20180;-53
2022/04/03 02:24:18;;;;;;;3.37;1.70;;;;;;;;;;5047849;28;20648;-53
2022/04/03 02:26:44;;;;;;;2.30;2.10;;;;;;;;;;5049764;28;20246;-53
2022/04/03 02:29:11;;;;;;;2.00;1.80;;;;;;;;;;5068223;28;20722;-53
2022/04/03 02:31:37;;;;;;;3.27;1.60;;;;;;;;;;5043151;28;20765;-53
2022/04/03 02:34:05;;;;;;;2.67;1.80;;;;;;;;;;5046275;28;20659;-52
2022/04/03 02:36:32;;;;;;;2.10;1.90;;;;;;;;;;5071035;28;20176;-52
2022/04/03 02:38:58;;;;;;;2.07;1.60;;;;;;;;;;5066809;28;20520;-54
2022/04/03 02:41:24;;;;;;;2.17;2.00;;;;;;;;;;5047964;28;20181;-54
2022/04/03 02:43:51;;;;;;;2.23;1.80;;;;;;;;;;5069624;28;20615;-53
2022/04/03 02:46:17;;;;;;;2.20;2.00;;;;;;;;;;5053722;28;20184;-54
2022/04/03 02:48:43;;;;;;;2.47;1.97;;;;;;;;;;5043888;28;20184;-53
2022/04/03 02:51:09;;;;;;;2.00;1.90;;;;;;;;;;5082371;28;20194;-53
2022/04/03 02:53:35;;;;;;;1.90;1.77;;;;;;;;;;5069464;28;20208;-53
2022/04/03 02:56:01;;;;;;;2.73;1.93;;;;;;;;;;5041499;28;20583;-53
2022/04/03 02:58:27;;;;;;;2.37;2.07;;;;;;;;;;5063833;28;20287;-53
2022/04/03 03:00:54;;;;;;;2.20;1.93;;;;;;;;;;5069420;28;20176;-53
2022/04/03 03:03:20;;;;;;;1.87;1.77;;;;;;;;;;5046276;28;20621;-53
2022/04/03 03:05:49;;;;;;;2.60;2.20;;;;;;;;;;5051896;28;20291;-54
2022/04/03 03:08:15;;;;;;;2.30;2.03;;;;;;;;;;5047898;28;20820;-53
2022/04/03 03:10:41;;;;;;;2.50;1.87;;;;;;;;;;5049853;28;20221;-55
2022/04/03 03:13:08;;;;;;;2.10;1.90;;;;;;;;;;5072768;28;20185;-54
2022/04/03 03:15:35;;;;;;;1.90;1.80;;;;;;;;;;5059003;28;20215;-53
2022/04/03 03:18:01;;;;;;;2.47;2.00;;;;;;;;;;5061854;28;20486;-54
2022/04/03 03:20:27;;;;;;;2.13;1.80;;;;;;;;;;5043274;28;20276;-53
2022/04/03 03:22:54;;;;;;;2.60;2.13;;;;;;;;;;5048841;28;20180;-53
2022/04/03 03:25:20;;;;;;;2.57;1.80;;;;;;;;;;5069654;28;20615;-54
2022/04/03 03:27:46;;;;;;;2.23;2.03;;;;;;;;;;5045286;28;20263;-54
2022/04/03 03:30:12;;;;;;;2.00;1.80;;;;;;;;;;5044902;28;20543;-53
2022/04/03 03:32:38;;;;;;;3.87;2.00;;;;;;;;;;5060923;28;20219;-54
2022/04/03 03:35:05;;;;;;;2.43;1.90;;;;;;;;;;5048797;28;20206;-54
2022/04/03 03:37:31;;;;;;;3.80;1.90;;;;;;;;;;5066811;28;20188;-53
2022/04/03 03:39:58;;;;;;;2.00;1.80;;;;;;;;;;5047604;28;20629;-53
2022/04/03 03:42:24;;;;;;;2.50;2.17;;;;;;;;;;5063530;28;20174;-54
2022/04/03 03:44:50;;;;;;;2.67;1.83;;;;;;;;;;5049056;28;20473;-55
2022/04/03 03:47:16;;;;;;;2.27;2.07;;;;;;;;;;5062082;28;20220;-54
2022/04/03 03:49:43;;;;;;;2.20;1.97;;;;;;;;;;5047349;28;20437;-52
2022/04/03 03:52:10;;;;;;;4.03;1.90;;;;;;;;;;5065509;28;20213;-53
2022/04/03 03:54:36;;;;;;;2.40;1.80;;;;;;;;;;5033714;28;20454;-52
2022/04/03 03:57:03;;;;;;;2.27;1.83;;;;;;;;;;5045371;28;20200;-54
2022/04/03 03:59:29;;;;;;;2.30;1.70;;;;;;;;;;5065668;28;20431;-52
2022/04/03 04:01:56;;;;;;;2.03;1.90;;;;;;;;;;5066758;28;20431;-50
2022/04/03 04:04:22;;;;;;;2.33;1.97;;;;;;;;;;5038477;28;20625;-53
2022/04/03 04:06:48;;;;;;;1.77;1.67;;;;;;;;;;5065912;28;20241;-55
2022/04/03 04:09:14;;;;;;;6.17;2.87;;;;;;;;;;5049394;28;20195;-53
2022/04/03 04:11:41;;;;;;;2.30;2.10;;;;;;;;;;5045737;28;20216;-53
2022/04/03 04:14:07;;;;;;;2.00;1.80;;;;;;;;;;5039380;28;20346;-53
2022/04/03 04:16:34;;;;;;;1.70;1.57;;;;;;;;;;5065799;28;20309;-53
2022/04/03 04:19:01;;;;;;;2.80;2.30;;;;;;;;;;5040062;28;20180;-53
2022/04/03 04:21:27;;;;;;;3.23;1.60;;;;;;;;;;5069123;28;20926;-53
2022/04/03 04:23:53;;;;;;;2.83;2.37;;;;;;;;;;5067610;28;21003;-53
2022/04/03 04:26:19;;;;;;;2.93;1.97;;;;;;;;;;5053264;28;20904;-52
2022/04/03 04:28:48;;;;;;;2.30;2.10;;;;;;;;;;5072963;28;20483;-53
2022/04/03 04:31:15;;;;;;;2.50;2.03;;;;;;;;;;5067670;28;20194;-53
2022/04/03 04:33:44;;;;;;;4.40;1.90;;;;;;;;;;5035877;28;20460;-53
2022/04/03 04:36:13;;;;;;;2.60;2.37;;;;;;;;;;5058351;28;20187;-53
2022/04/03 04:38:39;;;;;;;2.27;2.03;;;;;;;;;;5045913;28;20531;-52
2022/04/03 04:41:05;;;;;;;4.57;2.33;;;;;;;;;;5058905;28;20994;-52
2022/04/03 04:43:31;;;;;;;2.10;1.80;;;;;;;;;;5051179;28;20454;-53
2022/04/03 04:45:57;;;;;;;2.30;1.83;;;;;;;;;;5072828;28;20968;-53
2022/04/03 04:48:23;;;;;;;3.87;2.47;;;;;;;;;;5044203;28;20427;-53
2022/04/03 04:50:50;;;;;;;1.93;1.73;;;;;;;;;;5063315;28;20437;-53
2022/04/03 04:53:16;;;;;;;2.37;2.00;;;;;;;;;;5057876;28;20816;-52
2022/04/03 04:55:42;;;;;;;2.73;2.23;;;;;;;;;;5082542;28;20212;-53
2022/04/03 04:58:09;;;;;;;2.43;2.20;;;;;;;;;;5058861;28;20488;-54
2022/04/03 05:00:35;;;;;;;2.23;2.07;;;;;;;;;;5056682;28;20892;-53
2022/04/03 05:03:02;;;;;;;3.20;2.50;;;;;;;;;;5062010;28;20267;-53
2022/04/03 05:05:29;;;;;;;2.17;1.97;;;;;;;;;;5063627;28;20430;-53
2022/04/03 05:07:57;;;;;;;2.03;1.83;;;;;;;;;;5065933;28;20436;-52
2022/04/03 05:10:24;;;;;;;2.73;2.40;;;;;;;;;;5056015;28;20220;-51
2022/04/03 05:12:50;;;;;;;2.47;1.90;;;;;;;;;;5050099;28;20426;-52
2022/04/03 05:15:18;;;;;;;2.37;2.17;;;;;;;;;;5061703;28;21068;-52
2022/04/03 05:17:45;;;;;;;2.50;2.30;;;;;;;;;;5049037;28;20438;-53
2022/04/03 05:20:12;;;;;;;2.77;2.33;;;;;;;;;;5060903;28;20891;-53
2022/04/03 05:22:39;;;;;;;2.87;2.00;;;;;;;;;;5062660;28;20427;-53
2022/04/03 05:25:05;;;;;;;2.10;1.90;;;;;;;;;;5044349;28;20964;-52
2022/04/03 05:27:32;;;;;;;2.50;2.30;;;;;;;;;;5060325;28;20192;-52
2022/04/03 05:29:59;;;;;;;2.40;2.20;;;;;;;;;;5066714;28;20468;-53
2022/04/03 05:32:28;;;;;;;2.77;2.03;;;;;;;;;;5066188;28;20427;-52
2022/04/03 05:34:55;;;;;;;2.43;1.87;;;;;;;;;;5045989;28;20489;-53
2022/04/03 05:37:21;;;;;;;2.80;2.23;;;;;;;;;;5054247;28;20412;-52
2022/04/03 05:39:47;;;;;;;2.33;2.13;;;;;;;;;;5064515;28;20430;-52
2022/04/03 05:42:14;;;;;;;2.57;2.23;;;;;;;;;;5067882;28;20608;-54
2022/04/03 05:44:40;;;;;;;2.30;2.10;;;;;;;;;;5060903;28;20787;-53
2022/04/03 05:47:06;;;;;;;3.30;2.20;;;;;;;;;;5067880;28;20510;-52
2022/04/03 05:49:33;;;;;;;2.43;2.20;;;;;;;;;;5065036;28;21009;-52
2022/04/03 05:51:59;;;;;;;3.10;2.17;;;;;;;;;;5040430;28;20965;-53
2022/04/03 05:54:25;;;;;;;3.53;2.60;;;;;;;;;;5059308;28;20458;-53
2022/04/03 05:56:51;;;;;;;2.87;2.37;;;;;;;;;;5047723;28;20200;-51
2022/04/03 05:59:20;;;;;;;2.40;2.20;;;;;;;;;;5043259;28;20447;-52
2022/04/03 06:01:47;;;;;;;2.50;2.27;;;;;;;;;;5068485;28;20410;-52
2022/04/03 06:04:13;;;;;;;2.83;2.37;;;;;;;;;;5063911;28;20517;-52
2022/04/03 06:06:39;;;;;;;4.17;2.43;;;;;;;;;;5051290;28;20422;-52
2022/04/03 06:09:05;;;;;;;2.43;2.00;;;;;;;;;;5047346;28;20523;-51
2022/04/03 06:11:31;;;;;;;3.70;2.30;;;;;;;;;;5053840;28;20458;-52
2022/04/03 06:13:57;;;;;;;2.50;2.17;;;;;;;;;;5049699;28;20533;-53
2022/04/03 06:16:24;;;;;;;2.20;2.00;;;;;;;;;;5068220;28;20431;-53
2022/04/03 06:18:52;;;;;;;2.60;2.23;;;;;;;;;;5066886;28;20887;-53
2022/04/03 06:21:18;;;;;;;3.10;2.30;;;;;;;;;;5068181;28;20427;-53
2022/04/03 06:23:44;;;;;;;2.27;2.00;;;;;;;;;;5065403;28;20423;-53
2022/04/03 06:26:11;;;;;;;2.53;2.27;;;;;;;;;;5064203;28;20452;-52
2022/04/03 06:28:37;;;;;;;3.40;2.60;;;;;;;;;;5052856;28;20652;-52
2022/04/03 06:31:03;;;;;;;1.83;1.73;;;;;;;;;;5069887;28;20426;-53
2022/04/03 06:33:29;;;;;;;2.70;2.50;;;;;;;;;;5051163;28;20414;-52
2022/04/03 06:35:55;;;;;;;2.70;2.50;;;;;;;;;;5071185;28;20410;-53
2022/04/03 06:38:21;;;;;;;2.53;2.03;;;;;;;;;;5072007;28;20435;-53
2022/04/03 06:40:55;;;;;;;4.03;2.90;;;;;;;;;;5079011;28;20909;-54
2022/04/03 06:43:22;;;;;;;2.57;2.33;;;;;;;;;;5074019;28;20417;-53
2022/04/03 06:45:49;;;;;;;2.47;2.17;;;;;;;;;;5064846;28;20464;-53
2022/04/03 06:48:15;;;;;;;3.53;2.47;;;;;;;;;;5069384;28;20448;-54
2022/04/03 06:50:42;;;;;;;3.43;2.40;;;;;;;;;;5070744;28;20777;-53
2022/04/03 06:53:08;;;;;;;2.90;2.60;;;;;;;;;;5048689;28;20509;-54
2022/04/03 06:55:35;;;;;;;2.87;2.23;;;;;;;;;;5051703;28;20860;-53
2022/04/03 06:58:01;;;;;;;2.87;2.37;;;;;;;;;;5063714;28;20822;-53
2022/04/03 07:00:27;;;;;;;3.53;2.53;;;;;;;;;;5044883;28;20828;-53
2022/04/03 07:02:54;;;;;;;2.63;2.37;;;;;;;;;;5069706;28;20430;-52
2022/04/03 07:05:20;;;;;;;3.27;2.30;;;;;;;;;;5049586;28;21207;-54
2022/04/03 07:07:55;;;;;;;3.40;2.70;;;;;;;;;;5065029;28;20440;-53
2022/04/03 07:10:21;;;;;;;6.17;2.40;;;;;;;;;;5080790;28;20500;-53
2022/04/03 07:12:47;;;;;;;2.73;2.33;;;;;;;;;;5069378;28;20443;-52
2022/04/03 07:15:13;;;;;;;4.03;2.47;;;;;;;;;;5066868;28;20468;-52
2022/04/03 07:17:40;;;;;;;2.23;1.97;;;;;;;;;;5071157;28;20441;-54
2022/04/03 07:20:07;;;;;;;2.70;2.37;;;;;;;;;;5065268;28;20437;-54
2022/04/03 07:22:33;;;;;;;2.60;2.30;;;;;;;;;;5072346;28;20421;-53
2022/04/03 07:24:59;;;;;;;4.67;2.23;;;;;;;;;;5067660;28;20438;-56
2022/04/03 07:27:27;;;;;;;5.07;2.60;;;;;;;;;;5069369;28;20445;-57
2022/04/03 07:29:53;;;;;;;3.60;2.80;;;;;;;;;;5067267;28;20427;-56
2022/04/03 07:32:22;;;;;;;4.87;2.30;;;;;;;;;;5069760;28;20426;-56
2022/04/03 07:34:49;;;;;;;5.90;3.63;;;;;;;;;;5075095;28;20462;-57
2022/04/03 07:37:15;;;;;;;6.07;3.10;;;;;;;;;;5085453;28;20422;-57
2022/04/03 07:39:41;;;;;;;6.93;3.87;;;;;;;;;;5036061;28;20439;-55
2022/04/03 07:42:08;;;;;;;12.83;4.33;;;;;;;;;;5032199;28;20404;-56
2022/04/03 07:44:34;;;;;;;7.97;4.97;;;;;;;;;;5067794;28;20414;-55
2022/04/03 07:47:00;;;;;;;10.17;5.57;;;;;;;;;;5068958;28;20472;-56
2022/04/03 07:49:27;;;;;;;10.43;4.80;;;;;;;;;;5048925;28;20516;-56
2022/04/03 07:51:53;;;;;;;7.80;4.53;;;;;;;;;;5069428;28;20501;-55
2022/04/03 07:54:19;;;;;;;11.70;4.93;;;;;;;;;;5078252;28;20925;-55
2022/04/03 07:56:45;;;;;;;11.67;5.37;;;;;;;;;;5049500;28;20974;-56
2022/04/03 07:59:11;;;;;;;7.83;3.97;;;;;;;;;;5063504;28;20439;-55
2022/04/03 08:01:37;;;;;;;9.10;4.20;;;;;;;;;;5069481;28;20430;-55
2022/04/03 08:04:03;;;;;;;6.47;3.80;;;;;;;;;;5067677;28;20506;-55
2022/04/03 08:06:29;;;;;;;6.43;4.23;;;;;;;;;;5068990;28;20406;-55
2022/04/03 08:08:56;;;;;;;8.10;3.70;;;;;;;;;;5049098;28;20996;-54
2022/04/03 08:11:22;;;;;;;6.50;3.80;;;;;;;;;;5068932;28;20452;-54
2022/04/03 08:13:48;;;;;;;7.13;3.70;;;;;;;;;;5067782;28;20426;-55
2022/04/03 08:16:15;;;;;;;6.27;3.37;;;;;;;;;;5069106;28;20172;-55
2022/04/03 08:18:41;;;;;;;5.87;3.20;;;;;;;;;;5069621;28;20964;-56
2022/04/03 08:21:09;;;;;;;8.90;3.10;;;;;;;;;;5089277;28;20413;-55
2022/04/03 08:23:35;;;;;;;8.53;3.67;;;;;;;;;;5075171;28;20730;-55
2022/04/03 08:26:01;;;;;;;4.03;3.07;;;;;;;;;;5068838;28;20415;-57
2022/04/03 08:28:28;;;;;;;4.10;2.90;;;;;;;;;;5066715;28;20307;-56
2022/04/03 08:30:54;;;;;;;4.87;2.93;;;;;;;;;;5068411;28;20177;-54
2022/04/03 08:33:21;;;;;;;5.43;2.60;;;;;;;;;;5057342;28;20183;-57
2022/04/03 08:35:50;;;;;;;3.77;2.57;;;;;;;;;;5078706;28;20207;-56
2022/04/03 08:38:17;;;;;;;3.10;2.33;;;;;;;;;;5082863;28;20274;-56
2022/04/03 08:40:43;;;;;;;2.77;2.47;;;;;;;;;;5078215;28;20687;-54
2022/04/03 08:43:09;;;;;;;5.50;3.03;;;;;;;;;;5056213;28;20556;-54
2022/04/03 08:45:35;;;;;;;4.10;2.43;;;;;;;;;;5069171;28;20547;-55
2022/04/03 08:48:02;;;;;;;3.57;2.67;;;;;;;;;;5067536;28;20187;-54
2022/04/03 08:50:30;;;;;;;3.43;2.00;;;;;;;;;;5068671;28;20593;-54
2022/04/03 08:52:58;;;;;;;3.77;2.40;;;;;;;;;;5065779;28;20220;-52
2022/04/03 08:55:24;;;;;;;2.67;2.30;;;;;;;;;;5088884;28;20199;-52
2022/04/03 08:57:50;;;;;;;2.43;2.23;;;;;;;;;;5080997;28;20666;-53
2022/04/03 09:00:16;;;;;;;2.73;2.27;;;;;;;;;;5068848;28;20609;-53
2022/04/03 09:02:45;;;;;;;3.57;2.80;;;;;;;;;;5066820;28;20602;-56
2022/04/03 09:05:11;;;;;;;2.93;2.63;;;;;;;;;;5069012;28;20259;-53
2022/04/03 09:07:37;;;;;;;3.73;2.37;;;;;;;;;;5068742;28;20196;-54
2022/04/03 09:10:08;;;;;;;4.07;2.47;;;;;;;;;;5061484;28;20219;-54
2022/04/03 09:12:42;;;;;;;2.23;1.97;;;;;;;;;;5079166;28;20249;-54
2022/04/03 09:15:12;;;;;;;3.23;2.10;;;;;;;;;;5047332;28;20212;-53
2022/04/03 09:17:42;;;;;;;3.80;2.13;;;;;;;;;;5067582;28;20366;-55
2022/04/03 09:20:09;;;;;;;3.70;2.00;;;;;;;;;;5072766;28;20180;-53
2022/04/03 09:22:36;;;;;;;2.47;1.70;;;;;;;;;;5072039;28;20184;-53
2022/04/03 09:25:06;;;;;;;2.47;1.90;;;;;;;;;;5049715;28;20549;-54
2022/04/03 09:27:36;;;;;;;2.87;2.33;;;;;;;;;;5056833;28;20240;-54
2022/04/03 09:30:02;;;;;;;2.60;2.17;;;;;;;;;;5087419;28;20183;-54
2022/04/03 09:32:28;;;;;;;2.33;2.10;;;;;;;;;;5074414;28;20640;-58
2022/04/03 09:34:58;;;;;;;3.17;2.30;;;;;;;;;;5068566;28;20212;-59
2022/04/03 09:37:26;;;;;;;2.07;1.83;;;;;;;;;;5087895;28;20180;-59
2022/04/03 09:39:52;;;;;;;2.43;1.77;;;;;;;;;;5080269;28;20207;-57
2022/04/03 09:42:18;;;;;;;2.37;1.97;;;;;;;;;;5078970;28;20426;-59
2022/04/03 09:44:45;;;;;;;3.07;1.70;;;;;;;;;;5062203;28;20257;-58
2022/04/03 09:47:12;;;;;;;2.37;1.70;;;;;;;;;;5072369;28;20271;-58
2022/04/03 09:49:38;;;;;;;2.10;1.90;;;;;;;;;;5071569;28;20289;-57
2022/04/03 09:52:04;;;;;;;2.20;1.70;;;;;;;;;;5075040;28;20609;-58
2022/04/03 09:54:30;;;;;;;2.07;1.97;;;;;;;;;;5069982;28;20231;-58
2022/04/03 09:56:56;;;;;;;1.50;1.40;;;;;;;;;;5063578;28;20199;-58
2022/04/03 09:59:23;;;;;;;1.97;1.67;;;;;;;;;;5044464;28;20188;-58
2022/04/03 10:01:56;;;;;;;2.17;1.80;;;;;;;;;;5057367;28;20628;-58
2022/04/03 10:04:23;;;;;;;2.97;1.63;;;;;;;;;;5053336;28;20552;-57
2022/04/03 10:06:52;;;;;;;2.63;1.50;;;;;;;;;;5052190;28;20173;-58
2022/04/03 10:09:18;;;;;;;2.13;1.60;;;;;;;;;;5068970;28;20184;-58
2022/04/03 10:11:46;;;;;;;2.50;1.70;;;;;;;;;;5071683;28;20299;-58
2022/04/03 10:14:12;;;;;;;1.50;1.40;;;;;;;;;;5073662;28;20203;-57
2022/04/03 10:16:38;;;;;;;3.43;1.70;;;;;;;;;;5068422;28;20180;-58
2022/04/03 10:19:04;;;;;;;3.57;1.73;;;;;;;;;;5039146;28;20181;-58
2022/04/03 10:21:37;;;;;;;2.00;1.57;;;;;;;;;;5063020;28;20610;-58
2022/04/03 10:24:23;;;;;;;3.73;1.60;;;;;;;;;;5053104;28;20279;-59
2022/04/03 10:26:52;;;;;;;2.10;1.50;;;;;;;;;;5058382;28;20280;-58
2022/04/03 10:29:18;;;;;;;1.90;1.30;;;;;;;;;;5068596;28;20187;-58
2022/04/03 10:31:54;;;;;;;1.63;1.30;;;;;;;;;;5072104;28;20259;-58
2022/04/03 10:34:21;;;;;;;3.13;1.33;;;;;;;;;;5057891;28;20205;-58
2022/04/03 10:36:47;;;;;;;2.43;1.67;;;;;;;;;;5051343;28;20173;-61
2022/04/03 10:39:22;;;;;;;1.53;1.43;;;;;;;;;;5057062;28;20185;-59
2022/04/03 10:41:48;;;;;;;1.57;1.47;;;;;;;;;;5051353;28;20592;-57
2022/04/03 10:44:16;;;;;;;3.13;1.53;;;;;;;;;;5068295;28;20183;-57
2022/04/03 10:47:01;;;;;;;1.30;1.13;;;;;;;;;;5069855;28;20326;-60
2022/04/03 10:49:29;;;;;;;2.40;1.70;;;;;;;;;;5056496;28;20184;-59
2022/04/03 10:52:02;;;;;;;1.60;1.50;;;;;;;;;;5079862;28;20180;-60
2022/04/03 10:54:30;;;;;;;1.40;1.30;;;;;;;;;;5081714;28;20242;-60
2022/04/03 10:57:16;;;;;;;1.40;1.30;;;;;;;;;;5086577;28;20299;-59
2022/04/03 10:59:42;;;;;;;2.83;1.27;;;;;;;;;;5078511;28;20176;-60
2022/04/03 11:02:14;;;;;;;1.93;1.20;;;;;;;;;;5077990;28;20219;-58
2022/04/03 11:04:40;;;;;;;3.30;1.50;;;;;;;;;;5069462;28;20180;-60
2022/04/03 11:07:14;;;;;;;1.90;1.40;;;;;;;;;;5088220;28;20184;-60
2022/04/03 11:09:47;;;;;;;11.03;2.57;;;;;;;;;;5022565;28;20225;-60
2022/04/03 11:12:13;;;;;;;2.70;1.67;;;;;;;;;;5053310;28;20717;-60
2022/04/03 11:14:53;;;;;;;3.90;1.57;;;;;;;;;;5068773;28;20740;-61
2022/04/03 11:17:37;;;;;;;1.63;1.37;;;;;;;;;;5078458;28;20558;-60
2022/04/03 11:20:03;;;;;;;2.40;1.50;;;;;;;;;;5070399;28;20220;-61
2022/04/03 11:22:30;;;;;;;1.67;1.57;;;;;;;;;;5070219;28;20739;-59
2022/04/03 11:24:56;;;;;;;1.60;1.43;;;;;;;;;;5068290;28;20263;-62
2022/04/03 11:27:22;;;;;;;1.67;1.37;;;;;;;;;;5070715;28;20263;-61
2022/04/03 11:29:49;;;;;;;1.87;1.63;;;;;;;;;;5085764;28;20550;-63
2022/04/03 11:32:16;;;;;;;4.80;1.70;;;;;;;;;;5076427;28;20218;-63
2022/04/03 11:34:42;;;;;;;2.33;1.57;;;;;;;;;;5077576;28;20215;-62
2022/04/03 11:37:10;;;;;;;3.10;1.60;;;;;;;;;;5084527;28;20291;-62
2022/04/03 11:39:38;;;;;;;1.60;1.47;;;;;;;;;;5068244;28;20215;-61
2022/04/03 11:42:06;;;;;;;1.50;1.30;;;;;;;;;;5057240;28;20641;-58
2022/04/03 11:44:32;;;;;;;2.87;1.90;;;;;;;;;;5065772;28;20172;-61
2022/04/03 11:47:00;;;;;;;1.83;1.73;;;;;;;;;;5063773;28;20180;-60
2022/04/03 11:49:28;;;;;;;1.50;1.40;;;;;;;;;;5053958;28;20279;-59
2022/04/03 11:52:08;;;;;;;1.33;1.13;;;;;;;;;;5061937;28;20726;-60
2022/04/03 11:54:35;;;;;;;3.07;1.60;;;;;;;;;;5066896;28;20203;-59
2022/04/03 11:57:02;;;;;;;1.97;1.67;;;;;;;;;;5048431;28;20208;-57
2022/04/03 11:59:29;;;;;;;2.90;1.87;;;;;;;;;;5064715;28;20172;-61
2022/04/03 12:01:55;;;;;;;1.50;1.40;;;;;;;;;;5061195;28;20458;-59
2022/04/03 12:04:23;;;;;;;2.07;1.87;;;;;;;;;;5057895;28;20277;-58
2022/04/03 12:06:50;;;;;;;1.80;1.70;;;;;;;;;;5063696;28;20268;-62
2022/04/03 12:09:21;;;;;;;2.53;1.50;;;;;;;;;;5052928;28;20192;-62
2022/04/03 12:11:51;;;;;;;1.40;1.30;;;;;;;;;;5050168;28;20682;-61
2022/04/03 12:14:32;;;;;;;1.63;1.53;;;;;;;;;;5041595;28;20194;-61
2022/04/03 12:17:00;;;;;;;2.83;1.70;;;;;;;;;;5037095;28;20335;-61
2022/04/03 12:19:26;;;;;;;1.53;1.43;;;;;;;;;;5035994;28;20232;-58
2022/04/03 12:21:56;;;;;;;1.47;1.33;;;;;;;;;;5015662;28;20215;-61
2022/04/03 12:24:24;;;;;;;1.47;1.37;;;;;;;;;;5045462;28;20349;-61
2022/04/03 12:26:50;;;;;;;1.70;1.60;;;;;;;;;;5048045;28;20181;-59
2022/04/03 12:29:17;;;;;;;1.30;1.20;;;;;;;;;;5048493;28;20583;-61
2022/04/03 12:31:44;;;;;;;2.53;1.43;;;;;;;;;;5049110;28;20179;-62
2022/04/03 12:34:11;;;;;;;1.70;1.50;;;;;;;;;;5040178;28;20236;-62
2022/04/03 12:36:42;;;;;;;3.17;1.47;;;;;;;;;;5042911;28;20185;-63
2022/04/03 12:39:26;;;;;;;2.80;1.90;;;;;;;;;;5034925;28;20245;-62
2022/04/03 12:41:52;;;;;;;1.50;1.40;;;;;;;;;;5028901;28;20217;-62
2022/04/03 12:44:19;;;;;;;3.30;1.67;;;;;;;;;;5044012;28;20262;-62
2022/04/03 12:46:46;;;;;;;1.87;1.43;;;;;;;;;;5044691;28;20181;-62
2022/04/03 12:49:18;;;;;;;2.00;1.60;;;;;;;;;;5047271;28;20217;-61
2022/04/03 12:51:48;;;;;;;1.60;1.20;;;;;;;;;;5045403;28;20196;-62
2022/04/03 12:54:14;;;;;;;1.43;1.33;;;;;;;;;;5047382;28;20309;-61
2022/04/03 12:59:39;;;;;;;1.30;1.20;;;;;;;;;;5047992;28;20589;-61
2022/04/03 13:02:06;;;;;;;1.60;1.50;;;;;;;;;;5042122;28;20599;-62
2022/04/03 13:04:32;;;;;;;1.80;1.50;;;;;;;;;;5036825;28;20231;-61
2022/04/03 13:06:59;;;;;;;2.67;2.17;;;;;;;;;;5029847;28;20679;-61
2022/04/03 13:09:25;;;;;;;1.60;1.50;;;;;;;;;;5053894;28;20176;-62
2022/04/03 13:11:54;;;;;;;2.03;1.70;;;;;;;;;;5055861;28;20579;-60
2022/04/03 13:14:22;;;;;;;3.80;1.90;;;;;;;;;;5053067;28;20211;-62
2022/04/03 13:16:49;;;;;;;2.43;2.23;;;;;;;;;;5052221;28;20185;-62
2022/04/03 13:19:21;;;;;;;2.90;1.83;;;;;;;;;;5022787;28;20539;-61
2022/04/03 13:21:47;;;;;;;2.13;1.77;;;;;;;;;;5044399;28;20185;-61
2022/04/03 13:24:13;;;;;;;3.30;2.00;;;;;;;;;;5024652;28;20201;-60
2022/04/03 13:26:40;;;;;;;2.20;1.93;;;;;;;;;;5063416;28;20276;-62
2022/04/03 13:29:09;;;;;;;2.57;2.30;;;;;;;;;;5050435;28;20193;-59
2022/04/03 13:31:35;;;;;;;3.67;2.20;;;;;;;;;;5055827;28;20699;-62
2022/04/03 13:34:02;;;;;;;1.67;1.57;;;;;;;;;;5047763;28;20177;-61
2022/04/03 13:36:28;;;;;;;1.70;1.60;;;;;;;;;;5033167;28;20174;-62
2022/04/03 13:38:55;;;;;;;1.57;1.47;;;;;;;;;;5047059;28;20538;-62
2022/04/03 13:41:21;;;;;;;3.37;1.23;;;;;;;;;;5056829;28;20258;-63
2022/04/03 13:43:47;;;;;;;1.93;1.40;;;;;;;;;;5048895;28;20719;-61
2022/04/03 13:46:14;;;;;;;3.13;2.00;;;;;;;;;;5031672;28;20232;-62
2022/04/03 13:48:40;;;;;;;1.50;1.40;;;;;;;;;;5052462;28;20196;-62
2022/04/03 13:51:08;;;;;;;3.87;1.50;;;;;;;;;;5042587;28;20612;-58
2022/04/03 13:53:34;;;;;;;1.53;1.43;;;;;;;;;;5056108;28;20184;-62
2022/04/03 13:56:01;;;;;;;2.43;1.70;;;;;;;;;;5054261;28;20204;-62
2022/04/03 13:58:28;;;;;;;4.73;1.87;;;;;;;;;;5035410;28;20292;-62
2022/04/03 14:00:55;;;;;;;1.60;1.47;;;;;;;;;;5031791;28;20181;-61
2022/04/03 14:03:21;;;;;;;4.63;1.93;;;;;;;;;;5030433;28;20216;-60
2022/04/03 14:05:49;;;;;;;1.57;1.20;;;;;;;;;;5051041;28;20181;-59
2022/04/03 14:08:16;;;;;;;2.27;1.90;;;;;;;;;;5048226;28;20189;-60
2022/04/03 14:10:42;;;;;;;2.53;1.63;;;;;;;;;;5061491;28;20298;-60
2022/04/03 14:13:08;;;;;;;12.90;2.67;;;;;;;;;;5069264;28;20176;-60
2022/04/03 14:15:36;;;;;;;4.90;2.13;;;;;;;;;;5061182;28;20224;-60
2022/04/03 14:18:02;;;;;;;9.40;3.07;;;;;;;;;;5055147;28;20185;-58
2022/04/03 14:20:29;;;;;;;7.70;2.63;;;;;;;;;;5078801;28;20180;-57
2022/04/03 14:22:55;;;;;;;1.57;1.47;;;;;;;;;;5069163;28;20185;-61
2022/04/03 14:25:21;;;;;;;2.40;2.20;;;;;;;;;;5044061;28;20629;-63
2022/04/03 14:27:47;;;;;;;5.73;3.03;;;;;;;;;;5065916;28;20176;-62
2022/04/03 14:30:13;;;;;;;5.20;3.57;;;;;;;;;;5051356;28;20714;-61
2022/04/03 14:32:46;;;;;;;3.50;2.30;;;;;;;;;;5053624;28;20277;-60
2022/04/03 14:35:13;;;;;;;4.60;2.87;;;;;;;;;;5059058;28;20227;-60
2022/04/03 14:37:42;;;;;;;2.50;1.50;;;;;;;;;;5056522;28;20528;-61
2022/04/03 14:40:09;;;;;;;4.27;3.87;;;;;;;;;;5053307;28;20180;-60
2022/04/03 14:42:35;;;;;;;2.77;2.57;;;;;;;;;;5046071;28;20217;-62
2022/04/03 14:45:03;;;;;;;3.83;2.53;;;;;;;;;;5062872;28;20551;-61